GATPL EGKA-EGKA
Flight info
| Callsign | GATPL |
|---|---|
| Flight time | 1h 42m |
| Altitude | 2100 |
| Route | EGKA, SFD, LDZ, DET, BIG, EPM, MID, EGKA |
| Aircraft | C152/L-SGY/S |
Departure
| Time | 2026-04-27 20:22 |
|---|---|
| Airport | Brighton City Airport (EGKA) |
Arrival
| Time | 2026-04-27 22:05 |
|---|---|
| Airport | Brighton City Airport (EGKA) |
| Time | Latitude | Longitude | Altitude | Speed | Heading |
|---|---|---|---|---|---|
| 2026-04-27 20:15 | 50.83431 | -0.29020 | 12 ft | 0 kts | 71° |
| 2026-04-27 20:15 | 50.83433 | -0.29012 | 12 ft | 4 kts | 69° |
| 2026-04-27 20:16 | 50.83458 | -0.28970 | 12 ft | 0 kts | 7° |
| 2026-04-27 20:16 | 50.83491 | -0.28950 | 12 ft | 12 kts | 56° |
| 2026-04-27 20:16 | 50.83531 | -0.28824 | 12 ft | 13 kts | 30° |
| 2026-04-27 20:16 | 50.83626 | -0.28859 | 12 ft | 18 kts | 310° |
| 2026-04-27 20:17 | 50.83710 | -0.29060 | 12 ft | 26 kts | 307° |
| 2026-04-27 20:17 | 50.83804 | -0.29264 | 12 ft | 16 kts | 307° |
| 2026-04-27 20:17 | 50.83903 | -0.29332 | 12 ft | 13 kts | 5° |
| 2026-04-27 20:17 | 50.83928 | -0.29335 | 12 ft | 2 kts | 230° |
| 2026-04-27 20:18 | 50.83927 | -0.29336 | 12 ft | 0 kts | 210° |
| 2026-04-27 20:20 | 50.83919 | -0.29331 | 12 ft | 4 kts | 57° |
| 2026-04-27 20:20 | 50.83962 | -0.29334 | 12 ft | 1 kts | 326° |
| 2026-04-27 20:20 | 50.83984 | -0.29400 | 12 ft | 11 kts | 290° |
| 2026-04-27 20:20 | 50.83978 | -0.29466 | 12 ft | 7 kts | 196° |
| 2026-04-27 20:21 | 50.83970 | -0.29470 | 12 ft | 0 kts | 199° |
| 2026-04-27 20:21 | 50.83970 | -0.29471 | 12 ft | 2 kts | 198° |
| 2026-04-27 20:21 | 50.83789 | -0.29583 | 12 ft | 56 kts | 202° |
| 2026-04-27 20:22 | 50.83361 | -0.29878 | 140 ft | 72 kts | 205° |
| 2026-04-27 20:22 | 50.82928 | -0.30238 | 391 ft | 69 kts | 212° |
| 2026-04-27 20:22 | 50.82544 | -0.30666 | 643 ft | 64 kts | 218° |
| 2026-04-27 20:22 | 50.82105 | -0.30762 | 828 ft | 74 kts | 154° |
| 2026-04-27 20:23 | 50.81890 | -0.30059 | 1046 ft | 75 kts | 95° |
| 2026-04-27 20:23 | 50.81828 | -0.29265 | 1301 ft | 69 kts | 91° |
| 2026-04-27 20:23 | 50.81800 | -0.28550 | 1528 ft | 64 kts | 89° |
| 2026-04-27 20:23 | 50.81767 | -0.27849 | 1720 ft | 64 kts | 93° |
| 2026-04-27 20:24 | 50.81713 | -0.27155 | 1933 ft | 62 kts | 88° |
| 2026-04-27 20:24 | 50.81688 | -0.26470 | 2106 ft | 65 kts | 84° |
| 2026-04-27 20:24 | 50.81694 | -0.25654 | 2118 ft | 82 kts | 83° |
| 2026-04-27 20:24 | 50.81709 | -0.25039 | 2147 ft | 85 kts | 83° |
| 2026-04-27 20:25 | 50.81751 | -0.24080 | 2192 ft | 89 kts | 80° |
| 2026-04-27 20:25 | 50.81830 | -0.23062 | 2158 ft | 97 kts | 78° |
| 2026-04-27 20:25 | 50.81921 | -0.22033 | 2207 ft | 92 kts | 77° |
| 2026-04-27 20:25 | 50.81977 | -0.21002 | 2214 ft | 96 kts | 88° |
| 2026-04-27 20:26 | 50.81840 | -0.19960 | 2211 ft | 100 kts | 105° |
| 2026-04-27 20:26 | 50.81605 | -0.18909 | 2151 ft | 99 kts | 106° |
| 2026-04-27 20:26 | 50.81370 | -0.17891 | 2102 ft | 97 kts | 105° |
| 2026-04-27 20:26 | 50.81147 | -0.16918 | 2103 ft | 96 kts | 106° |
| 2026-04-27 20:27 | 50.80963 | -0.15902 | 2120 ft | 97 kts | 99° |
| 2026-04-27 20:27 | 50.80817 | -0.14856 | 2146 ft | 97 kts | 96° |
| 2026-04-27 20:27 | 50.80730 | -0.13805 | 2169 ft | 97 kts | 92° |
| 2026-04-27 20:27 | 50.80634 | -0.12734 | 2157 ft | 99 kts | 97° |
| 2026-04-27 20:28 | 50.80482 | -0.11665 | 2115 ft | 102 kts | 99° |
| 2026-04-27 20:28 | 50.80310 | -0.10555 | 2084 ft | 101 kts | 101° |
| 2026-04-27 20:28 | 50.80156 | -0.09465 | 2072 ft | 102 kts | 98° |
| 2026-04-27 20:28 | 50.80047 | -0.08744 | 2056 ft | 102 kts | 101° |
| 2026-04-27 20:29 | 50.79783 | -0.07332 | 2090 ft | 98 kts | 107° |
| 2026-04-27 20:29 | 50.79520 | -0.06333 | 2101 ft | 98 kts | 110° |
| 2026-04-27 20:29 | 50.79224 | -0.05353 | 2121 ft | 99 kts | 111° |
| 2026-04-27 20:29 | 50.78971 | -0.04362 | 2143 ft | 98 kts | 104° |
| 2026-04-27 20:30 | 50.78777 | -0.03319 | 2142 ft | 99 kts | 101° |
| 2026-04-27 20:30 | 50.78626 | -0.02277 | 2167 ft | 98 kts | 98° |
| 2026-04-27 20:30 | 50.78509 | -0.01204 | 2150 ft | 100 kts | 95° |
| 2026-04-27 20:30 | 50.78412 | -0.00113 | 2123 ft | 100 kts | 96° |
| 2026-04-27 20:31 | 50.78244 | 0.00960 | 2092 ft | 100 kts | 103° |
| 2026-04-27 20:31 | 50.78038 | 0.01995 | 2102 ft | 98 kts | 104° |
| 2026-04-27 20:31 | 50.77834 | 0.03019 | 2103 ft | 98 kts | 105° |
| 2026-04-27 20:31 | 50.77611 | 0.04031 | 2106 ft | 98 kts | 108° |
| 2026-04-27 20:32 | 50.77401 | 0.05060 | 2093 ft | 98 kts | 102° |
| 2026-04-27 20:32 | 50.77227 | 0.06090 | 2099 ft | 97 kts | 100° |
| 2026-04-27 20:32 | 50.77089 | 0.07119 | 2091 ft | 97 kts | 97° |
| 2026-04-27 20:32 | 50.76970 | 0.08171 | 2088 ft | 97 kts | 97° |
| 2026-04-27 20:33 | 50.76823 | 0.09211 | 2081 ft | 97 kts | 102° |
| 2026-04-27 20:33 | 50.76631 | 0.10244 | 2067 ft | 98 kts | 104° |
| 2026-04-27 20:33 | 50.76402 | 0.11256 | 2111 ft | 98 kts | 107° |
| 2026-04-27 20:33 | 50.76152 | 0.12263 | 2160 ft | 97 kts | 108° |
| 2026-04-27 20:34 | 50.76115 | 0.13301 | 2177 ft | 95 kts | 75° |
| 2026-04-27 20:34 | 50.76261 | 0.14323 | 2206 ft | 97 kts | 74° |
| 2026-04-27 20:34 | 50.76380 | 0.15399 | 2152 ft | 101 kts | 78° |
| 2026-04-27 20:34 | 50.76481 | 0.16501 | 2079 ft | 100 kts | 80° |
| 2026-04-27 20:35 | 50.76576 | 0.17565 | 2097 ft | 97 kts | 77° |
| 2026-04-27 20:35 | 50.76701 | 0.18576 | 2093 ft | 95 kts | 78° |
| 2026-04-27 20:35 | 50.76795 | 0.19610 | 2066 ft | 94 kts | 78° |
| 2026-04-27 20:35 | 50.76895 | 0.20624 | 2063 ft | 93 kts | 78° |
| 2026-04-27 20:36 | 50.76997 | 0.21626 | 2107 ft | 93 kts | 78° |
| 2026-04-27 20:36 | 50.77084 | 0.22654 | 2152 ft | 94 kts | 80° |
| 2026-04-27 20:36 | 50.77170 | 0.23695 | 2150 ft | 98 kts | 76° |
| 2026-04-27 20:36 | 50.77337 | 0.24703 | 2164 ft | 94 kts | 70° |
| 2026-04-27 20:37 | 50.77545 | 0.25708 | 2140 ft | 97 kts | 68° |
| 2026-04-27 20:37 | 50.77755 | 0.26707 | 2158 ft | 97 kts | 69° |
| 2026-04-27 20:37 | 50.77914 | 0.27748 | 2143 ft | 97 kts | 79° |
| 2026-04-27 20:37 | 50.77956 | 0.28822 | 2116 ft | 97 kts | 87° |
| 2026-04-27 20:38 | 50.77934 | 0.29870 | 2182 ft | 95 kts | 90° |
| 2026-04-27 20:38 | 50.77923 | 0.30960 | 2126 ft | 101 kts | 81° |
| 2026-04-27 20:38 | 50.78013 | 0.32035 | 2120 ft | 100 kts | 81° |
| 2026-04-27 20:38 | 50.78091 | 0.33109 | 2115 ft | 95 kts | 79° |
| 2026-04-27 20:39 | 50.78182 | 0.34161 | 2035 ft | 98 kts | 78° |
| 2026-04-27 20:39 | 50.78279 | 0.35214 | 2022 ft | 94 kts | 79° |
| 2026-04-27 20:39 | 50.78361 | 0.36257 | 1975 ft | 95 kts | 80° |
| 2026-04-27 20:39 | 50.78443 | 0.37258 | 1965 ft | 94 kts | 78° |
| 2026-04-27 20:40 | 50.78541 | 0.38234 | 2064 ft | 87 kts | 77° |
| 2026-04-27 20:40 | 50.78682 | 0.39179 | 2080 ft | 90 kts | 73° |
| 2026-04-27 20:40 | 50.78854 | 0.40135 | 2100 ft | 90 kts | 71° |
| 2026-04-27 20:40 | 50.78989 | 0.41134 | 2083 ft | 94 kts | 78° |
| 2026-04-27 20:41 | 50.79078 | 0.42154 | 2102 ft | 93 kts | 78° |
| 2026-04-27 20:41 | 50.79195 | 0.43152 | 2098 ft | 93 kts | 75° |
| 2026-04-27 20:41 | 50.79296 | 0.44169 | 2091 ft | 94 kts | 77° |
| 2026-04-27 20:41 | 50.79412 | 0.45184 | 2091 ft | 94 kts | 75° |
| 2026-04-27 20:42 | 50.79571 | 0.46175 | 2102 ft | 93 kts | 72° |
| 2026-04-27 20:42 | 50.79699 | 0.47177 | 2118 ft | 92 kts | 78° |
| 2026-04-27 20:42 | 50.79770 | 0.48161 | 2140 ft | 91 kts | 78° |
| 2026-04-27 20:42 | 50.79843 | 0.49149 | 2142 ft | 89 kts | 74° |
| 2026-04-27 20:43 | 50.80082 | 0.50041 | 2130 ft | 88 kts | 58° |
| 2026-04-27 20:43 | 50.80373 | 0.50871 | 2142 ft | 87 kts | 58° |
| 2026-04-27 20:43 | 50.80678 | 0.51698 | 2136 ft | 87 kts | 56° |
| 2026-04-27 20:43 | 50.81002 | 0.52508 | 2137 ft | 87 kts | 53° |
| 2026-04-27 20:44 | 50.81364 | 0.53274 | 2137 ft | 87 kts | 49° |
| 2026-04-27 20:44 | 50.81731 | 0.54037 | 2126 ft | 88 kts | 54° |
| 2026-04-27 20:44 | 50.82042 | 0.54874 | 2134 ft | 88 kts | 57° |
| 2026-04-27 20:44 | 50.82356 | 0.55697 | 2144 ft | 87 kts | 56° |
| 2026-04-27 20:45 | 50.82658 | 0.56523 | 2138 ft | 88 kts | 60° |
| 2026-04-27 20:45 | 50.82945 | 0.57369 | 2144 ft | 87 kts | 57° |
| 2026-04-27 20:45 | 50.83260 | 0.58189 | 2153 ft | 87 kts | 55° |
| 2026-04-27 20:45 | 50.83586 | 0.59006 | 2130 ft | 88 kts | 54° |
| 2026-04-27 20:46 | 50.83935 | 0.59779 | 2156 ft | 86 kts | 49° |
| 2026-04-27 20:46 | 50.84287 | 0.60559 | 2136 ft | 88 kts | 55° |
| 2026-04-27 20:46 | 50.84585 | 0.61399 | 2145 ft | 86 kts | 57° |
| 2026-04-27 20:46 | 50.84904 | 0.62210 | 2136 ft | 87 kts | 54° |
| 2026-04-27 20:47 | 50.85235 | 0.63011 | 2148 ft | 87 kts | 57° |
| 2026-04-27 20:47 | 50.85549 | 0.63826 | 2152 ft | 87 kts | 54° |
| 2026-04-27 20:47 | 50.85909 | 0.64576 | 2157 ft | 87 kts | 48° |
| 2026-04-27 20:47 | 50.86248 | 0.65371 | 2156 ft | 88 kts | 60° |
| 2026-04-27 20:48 | 50.86488 | 0.66262 | 2170 ft | 87 kts | 64° |
| 2026-04-27 20:48 | 50.86734 | 0.67159 | 2150 ft | 89 kts | 63° |
| 2026-04-27 20:48 | 50.86975 | 0.68075 | 2145 ft | 89 kts | 65° |
| 2026-04-27 20:48 | 50.87179 | 0.68967 | 2153 ft | 88 kts | 67° |
| 2026-04-27 20:49 | 50.87401 | 0.69874 | 2143 ft | 88 kts | 62° |
| 2026-04-27 20:49 | 50.87677 | 0.70747 | 2133 ft | 90 kts | 59° |
| 2026-04-27 20:49 | 50.87973 | 0.71630 | 2127 ft | 90 kts | 58° |
| 2026-04-27 20:49 | 50.88273 | 0.72489 | 2133 ft | 88 kts | 57° |
| 2026-04-27 20:50 | 50.88581 | 0.73328 | 2134 ft | 88 kts | 56° |
| 2026-04-27 20:50 | 50.88886 | 0.74184 | 2142 ft | 89 kts | 58° |
| 2026-04-27 20:50 | 50.89185 | 0.75022 | 2161 ft | 89 kts | 57° |
| 2026-04-27 20:50 | 50.89501 | 0.75901 | 2109 ft | 92 kts | 57° |
| 2026-04-27 20:51 | 50.89817 | 0.76758 | 2148 ft | 88 kts | 55° |
| 2026-04-27 20:51 | 50.90121 | 0.77610 | 2154 ft | 89 kts | 58° |
| 2026-04-27 20:51 | 50.90417 | 0.78478 | 2158 ft | 90 kts | 57° |
| 2026-04-27 20:51 | 50.90729 | 0.79344 | 2142 ft | 91 kts | 56° |
| 2026-04-27 20:52 | 50.91040 | 0.80214 | 2151 ft | 89 kts | 56° |
| 2026-04-27 20:52 | 50.91369 | 0.81026 | 2163 ft | 88 kts | 50° |
| 2026-04-27 20:52 | 50.91741 | 0.81798 | 2148 ft | 90 kts | 54° |
| 2026-04-27 20:52 | 50.92015 | 0.82689 | 2151 ft | 90 kts | 64° |
| 2026-04-27 20:53 | 50.92255 | 0.83603 | 2153 ft | 89 kts | 63° |
| 2026-04-27 20:53 | 50.92507 | 0.84512 | 2137 ft | 91 kts | 60° |
| 2026-04-27 20:53 | 50.92761 | 0.85424 | 2240 ft | 89 kts | 63° |
| 2026-04-27 20:53 | 50.93021 | 0.86372 | 2192 ft | 98 kts | 60° |
| 2026-04-27 20:54 | 50.93578 | 0.88224 | 2104 ft | 89 kts | 59° |
| 2026-04-27 20:54 | 50.93852 | 0.89102 | 2040 ft | 89 kts | 58° |
| 2026-04-27 20:54 | 50.94278 | 0.89650 | 2089 ft | 80 kts | 7° |
| 2026-04-27 20:55 | 50.94791 | 0.89338 | 2120 ft | 84 kts | 331° |
| 2026-04-27 20:55 | 50.95301 | 0.88807 | 2102 ft | 88 kts | 332° |
| 2026-04-27 20:55 | 50.95831 | 0.88342 | 2090 ft | 89 kts | 338° |
| 2026-04-27 20:55 | 50.96382 | 0.87880 | 2067 ft | 87 kts | 335° |
| 2026-04-27 20:56 | 50.96901 | 0.87420 | 2136 ft | 86 kts | 338° |
| 2026-04-27 20:56 | 50.97446 | 0.87014 | 2188 ft | 90 kts | 340° |
| 2026-04-27 20:56 | 50.98024 | 0.86634 | 2197 ft | 90 kts | 342° |
| 2026-04-27 20:56 | 50.98596 | 0.86282 | 2153 ft | 87 kts | 343° |
| 2026-04-27 20:57 | 50.99162 | 0.85944 | 2177 ft | 87 kts | 342° |
| 2026-04-27 20:57 | 50.99710 | 0.85527 | 2133 ft | 88 kts | 338° |
| 2026-04-27 20:57 | 51.00259 | 0.85067 | 2171 ft | 90 kts | 333° |
| 2026-04-27 20:57 | 51.00782 | 0.84547 | 2188 ft | 91 kts | 334° |
| 2026-04-27 20:58 | 51.01315 | 0.84009 | 2234 ft | 90 kts | 331° |
| 2026-04-27 20:58 | 51.01852 | 0.83448 | 2245 ft | 95 kts | 332° |
| 2026-04-27 20:58 | 51.02374 | 0.82869 | 2357 ft | 89 kts | 331° |
| 2026-04-27 20:58 | 51.02904 | 0.82333 | 2215 ft | 90 kts | 334° |
| 2026-04-27 20:59 | 51.03449 | 0.81879 | 2174 ft | 88 kts | 339° |
| 2026-04-27 20:59 | 51.04013 | 0.81480 | 2107 ft | 90 kts | 343° |
| 2026-04-27 20:59 | 51.04575 | 0.81158 | 2163 ft | 82 kts | 347° |
| 2026-04-27 20:59 | 51.05133 | 0.80887 | 2205 ft | 87 kts | 348° |
| 2026-04-27 21:00 | 51.05735 | 0.80645 | 2246 ft | 91 kts | 351° |
| 2026-04-27 21:00 | 51.06356 | 0.80383 | 2186 ft | 94 kts | 340° |
| 2026-04-27 21:00 | 51.06888 | 0.79811 | 2219 ft | 93 kts | 328° |
| 2026-04-27 21:00 | 51.07404 | 0.79209 | 2196 ft | 90 kts | 330° |
| 2026-04-27 21:01 | 51.07931 | 0.78683 | 2168 ft | 90 kts | 335° |
| 2026-04-27 21:01 | 51.08483 | 0.78216 | 2153 ft | 89 kts | 335° |
| 2026-04-27 21:01 | 51.09003 | 0.77714 | 2188 ft | 86 kts | 334° |
| 2026-04-27 21:01 | 51.09532 | 0.77232 | 2187 ft | 88 kts | 335° |
| 2026-04-27 21:02 | 51.10056 | 0.76743 | 2179 ft | 87 kts | 335° |
| 2026-04-27 21:02 | 51.10583 | 0.76253 | 2173 ft | 88 kts | 335° |
| 2026-04-27 21:02 | 51.11111 | 0.75763 | 2182 ft | 87 kts | 335° |
| 2026-04-27 21:02 | 51.11631 | 0.75269 | 2171 ft | 88 kts | 336° |
| 2026-04-27 21:03 | 51.12168 | 0.74823 | 2197 ft | 86 kts | 341° |
| 2026-04-27 21:03 | 51.12718 | 0.74434 | 2187 ft | 86 kts | 341° |
| 2026-04-27 21:03 | 51.13266 | 0.74054 | 2175 ft | 87 kts | 342° |
| 2026-04-27 21:03 | 51.13807 | 0.73688 | 2209 ft | 83 kts | 342° |
| 2026-04-27 21:04 | 51.14357 | 0.73331 | 2205 ft | 87 kts | 343° |
| 2026-04-27 21:04 | 51.14927 | 0.73014 | 2290 ft | 86 kts | 340° |
| 2026-04-27 21:04 | 51.15442 | 0.72474 | 2326 ft | 90 kts | 329° |
| 2026-04-27 21:04 | 51.15951 | 0.71882 | 2310 ft | 96 kts | 328° |
| 2026-04-27 21:05 | 51.16499 | 0.71252 | 2260 ft | 95 kts | 330° |
| 2026-04-27 21:05 | 51.17045 | 0.70679 | 2248 ft | 92 kts | 335° |
| 2026-04-27 21:05 | 51.17618 | 0.70226 | 2212 ft | 92 kts | 341° |
| 2026-04-27 21:05 | 51.18209 | 0.69846 | 2225 ft | 91 kts | 344° |
| 2026-04-27 21:06 | 51.18820 | 0.69530 | 2204 ft | 93 kts | 348° |
| 2026-04-27 21:06 | 51.19416 | 0.69168 | 2269 ft | 90 kts | 339° |
| 2026-04-27 21:06 | 51.19957 | 0.68628 | 2276 ft | 94 kts | 331° |
| 2026-04-27 21:06 | 51.20517 | 0.68063 | 2259 ft | 95 kts | 335° |
| 2026-04-27 21:07 | 51.21078 | 0.67525 | 2272 ft | 93 kts | 333° |
| 2026-04-27 21:07 | 51.21623 | 0.66955 | 2245 ft | 94 kts | 330° |
| 2026-04-27 21:07 | 51.22169 | 0.66389 | 2256 ft | 92 kts | 334° |
| 2026-04-27 21:07 | 51.22725 | 0.65932 | 2311 ft | 92 kts | 339° |
| 2026-04-27 21:08 | 51.23303 | 0.65468 | 2302 ft | 93 kts | 338° |
| 2026-04-27 21:08 | 51.23878 | 0.65013 | 2345 ft | 91 kts | 340° |
| 2026-04-27 21:08 | 51.24474 | 0.64604 | 2320 ft | 96 kts | 342° |
| 2026-04-27 21:08 | 51.25081 | 0.64181 | 2327 ft | 95 kts | 340° |
| 2026-04-27 21:09 | 51.25677 | 0.63724 | 2280 ft | 96 kts | 339° |
| 2026-04-27 21:09 | 51.26264 | 0.63206 | 2239 ft | 96 kts | 335° |
| 2026-04-27 21:09 | 51.26841 | 0.62706 | 2223 ft | 92 kts | 337° |
| 2026-04-27 21:09 | 51.27408 | 0.62237 | 2228 ft | 90 kts | 338° |
| 2026-04-27 21:10 | 51.27963 | 0.61815 | 2277 ft | 88 kts | 341° |
| 2026-04-27 21:10 | 51.28539 | 0.61435 | 2284 ft | 91 kts | 343° |
| 2026-04-27 21:10 | 51.28934 | 0.61202 | 2298 ft | 90 kts | 344° |
| 2026-04-27 21:10 | 51.29526 | 0.60867 | 2291 ft | 91 kts | 343° |
| 2026-04-27 21:11 | 51.29923 | 0.59717 | 2273 ft | 105 kts | 276° |
| 2026-04-27 21:11 | 51.29931 | 0.58562 | 2279 ft | 104 kts | 278° |
| 2026-04-27 21:11 | 51.29946 | 0.57788 | 2284 ft | 103 kts | 278° |
| 2026-04-27 21:11 | 51.29952 | 0.56642 | 2288 ft | 103 kts | 278° |
| 2026-04-27 21:12 | 51.29995 | 0.55494 | 2301 ft | 103 kts | 281° |
| 2026-04-27 21:12 | 51.30052 | 0.54361 | 2311 ft | 103 kts | 278° |
| 2026-04-27 21:12 | 51.30128 | 0.53218 | 2272 ft | 105 kts | 282° |
| 2026-04-27 21:12 | 51.30195 | 0.52082 | 2307 ft | 100 kts | 282° |
| 2026-04-27 21:13 | 51.30259 | 0.50980 | 2334 ft | 100 kts | 281° |
| 2026-04-27 21:13 | 51.30348 | 0.49857 | 2268 ft | 102 kts | 285° |
| 2026-04-27 21:13 | 51.30450 | 0.48751 | 2293 ft | 100 kts | 285° |
| 2026-04-27 21:13 | 51.30565 | 0.47650 | 2283 ft | 100 kts | 287° |
| 2026-04-27 21:14 | 51.30692 | 0.46532 | 2276 ft | 104 kts | 287° |
| 2026-04-27 21:14 | 51.30823 | 0.45405 | 2295 ft | 102 kts | 286° |
| 2026-04-27 21:14 | 51.30931 | 0.44294 | 2323 ft | 102 kts | 285° |
| 2026-04-27 21:14 | 51.31046 | 0.43165 | 2343 ft | 103 kts | 285° |
| 2026-04-27 21:15 | 51.31158 | 0.42031 | 2292 ft | 108 kts | 284° |
| 2026-04-27 21:15 | 51.31271 | 0.40847 | 2219 ft | 110 kts | 283° |
| 2026-04-27 21:15 | 51.31328 | 0.39643 | 2219 ft | 104 kts | 279° |
| 2026-04-27 21:15 | 51.31332 | 0.38485 | 2238 ft | 103 kts | 277° |
| 2026-04-27 21:16 | 51.31369 | 0.37352 | 2250 ft | 103 kts | 280° |
| 2026-04-27 21:16 | 51.31427 | 0.36221 | 2257 ft | 101 kts | 279° |
| 2026-04-27 21:16 | 51.31452 | 0.35107 | 2257 ft | 101 kts | 279° |
| 2026-04-27 21:16 | 51.31506 | 0.33982 | 2217 ft | 103 kts | 281° |
| 2026-04-27 21:17 | 51.31564 | 0.32839 | 2222 ft | 102 kts | 280° |
| 2026-04-27 21:17 | 51.31608 | 0.31704 | 2207 ft | 103 kts | 279° |
| 2026-04-27 21:17 | 51.31638 | 0.30591 | 2268 ft | 99 kts | 277° |
| 2026-04-27 21:17 | 51.31631 | 0.29490 | 2176 ft | 100 kts | 275° |
| 2026-04-27 21:18 | 51.31589 | 0.28370 | 2062 ft | 101 kts | 272° |
| 2026-04-27 21:18 | 51.31543 | 0.27292 | 2131 ft | 99 kts | 271° |
| 2026-04-27 21:18 | 51.31514 | 0.26202 | 2231 ft | 96 kts | 277° |
| 2026-04-27 21:18 | 51.31521 | 0.25117 | 2178 ft | 99 kts | 279° |
| 2026-04-27 21:19 | 51.31634 | 0.24086 | 2187 ft | 98 kts | 292° |
| 2026-04-27 21:19 | 51.31860 | 0.23016 | 2115 ft | 102 kts | 298° |
| 2026-04-27 21:19 | 51.32125 | 0.21972 | 2086 ft | 101 kts | 299° |
| 2026-04-27 21:20 | 51.32338 | 0.19772 | 2073 ft | 104 kts | 272° |
| 2026-04-27 21:20 | 51.32294 | 0.18643 | 2042 ft | 101 kts | 273° |
| 2026-04-27 21:20 | 51.32269 | 0.17533 | 2091 ft | 99 kts | 277° |
| 2026-04-27 21:20 | 51.32307 | 0.16439 | 2148 ft | 99 kts | 279° |
| 2026-04-27 21:21 | 51.32348 | 0.15348 | 2194 ft | 95 kts | 277° |
| 2026-04-27 21:21 | 51.32362 | 0.14242 | 2171 ft | 104 kts | 279° |
| 2026-04-27 21:21 | 51.32466 | 0.13116 | 2130 ft | 100 kts | 287° |
| 2026-04-27 21:21 | 51.32604 | 0.12005 | 2015 ft | 102 kts | 288° |
| 2026-04-27 21:22 | 51.32736 | 0.10926 | 2055 ft | 99 kts | 283° |
| 2026-04-27 21:22 | 51.32744 | 0.09830 | 2155 ft | 98 kts | 272° |
| 2026-04-27 21:22 | 51.32717 | 0.08727 | 2140 ft | 106 kts | 275° |
| 2026-04-27 21:22 | 51.32710 | 0.07565 | 2157 ft | 102 kts | 270° |
| 2026-04-27 21:23 | 51.32601 | 0.06468 | 2175 ft | 99 kts | 265° |
| 2026-04-27 21:23 | 51.32492 | 0.05377 | 2111 ft | 104 kts | 267° |
| 2026-04-27 21:23 | 51.32400 | 0.04209 | 2040 ft | 105 kts | 265° |
| 2026-04-27 21:23 | 51.32263 | 0.03099 | 2075 ft | 98 kts | 263° |
| 2026-04-27 21:24 | 51.32098 | 0.02029 | 2007 ft | 101 kts | 262° |
| 2026-04-27 21:24 | 51.32006 | 0.00932 | 1974 ft | 100 kts | 271° |
| 2026-04-27 21:24 | 51.31968 | -0.00188 | 1929 ft | 100 kts | 270° |
| 2026-04-27 21:24 | 51.31832 | -0.01281 | 1930 ft | 101 kts | 258° |
| 2026-04-27 21:25 | 51.31612 | -0.02354 | 1926 ft | 103 kts | 256° |
| 2026-04-27 21:25 | 51.31436 | -0.03459 | 1970 ft | 101 kts | 265° |
| 2026-04-27 21:25 | 51.31333 | -0.04577 | 2017 ft | 102 kts | 275° |
| 2026-04-27 21:25 | 51.31333 | -0.05702 | 2045 ft | 101 kts | 276° |
| 2026-04-27 21:26 | 51.31304 | -0.06829 | 2019 ft | 106 kts | 275° |
| 2026-04-27 21:26 | 51.31325 | -0.07978 | 1925 ft | 104 kts | 283° |
| 2026-04-27 21:26 | 51.31392 | -0.09093 | 2011 ft | 100 kts | 280° |
| 2026-04-27 21:26 | 51.31406 | -0.10214 | 2097 ft | 103 kts | 277° |
| 2026-04-27 21:27 | 51.31403 | -0.11360 | 2154 ft | 102 kts | 279° |
| 2026-04-27 21:27 | 51.31444 | -0.12531 | 2153 ft | 108 kts | 280° |
| 2026-04-27 21:27 | 51.31468 | -0.13729 | 2150 ft | 109 kts | 276° |
| 2026-04-27 21:27 | 51.31462 | -0.14949 | 2076 ft | 113 kts | 275° |
| 2026-04-27 21:28 | 51.31449 | -0.16193 | 2058 ft | 110 kts | 275° |
| 2026-04-27 21:28 | 51.31445 | -0.17397 | 2054 ft | 106 kts | 278° |
| 2026-04-27 21:28 | 51.31467 | -0.18559 | 2075 ft | 106 kts | 278° |
| 2026-04-27 21:28 | 51.31464 | -0.19748 | 2066 ft | 107 kts | 274° |
| 2026-04-27 21:29 | 51.31431 | -0.20944 | 2085 ft | 107 kts | 274° |
| 2026-04-27 21:29 | 51.31404 | -0.22139 | 2146 ft | 106 kts | 277° |
| 2026-04-27 21:29 | 51.31423 | -0.23265 | 2252 ft | 103 kts | 279° |
| 2026-04-27 21:29 | 51.31479 | -0.24465 | 2141 ft | 107 kts | 282° |
| 2026-04-27 21:30 | 51.31525 | -0.25675 | 2135 ft | 110 kts | 280° |
| 2026-04-27 21:30 | 51.31563 | -0.26898 | 2125 ft | 109 kts | 278° |
| 2026-04-27 21:30 | 51.31587 | -0.28098 | 2146 ft | 108 kts | 278° |
| 2026-04-27 21:30 | 51.31582 | -0.29278 | 2117 ft | 109 kts | 277° |
| 2026-04-27 21:31 | 51.31553 | -0.30483 | 2122 ft | 109 kts | 274° |
| 2026-04-27 21:31 | 51.31515 | -0.31722 | 2083 ft | 112 kts | 272° |
| 2026-04-27 21:31 | 51.31470 | -0.32917 | 2144 ft | 106 kts | 275° |
| 2026-04-27 21:31 | 51.31440 | -0.34119 | 2131 ft | 108 kts | 273° |
| 2026-04-27 21:32 | 51.31408 | -0.35315 | 2101 ft | 109 kts | 274° |
| 2026-04-27 21:32 | 51.31393 | -0.36520 | 2111 ft | 107 kts | 276° |
| 2026-04-27 21:32 | 51.31375 | -0.37709 | 2095 ft | 106 kts | 275° |
| 2026-04-27 21:32 | 51.31335 | -0.38887 | 2085 ft | 103 kts | 273° |
| 2026-04-27 21:33 | 51.31302 | -0.40031 | 2089 ft | 102 kts | 275° |
| 2026-04-27 21:33 | 51.31222 | -0.41158 | 2100 ft | 102 kts | 262° |
| 2026-04-27 21:33 | 51.31068 | -0.42286 | 2097 ft | 105 kts | 264° |
| 2026-04-27 21:33 | 51.30939 | -0.43434 | 2096 ft | 108 kts | 266° |
| 2026-04-27 21:34 | 51.30807 | -0.44637 | 2092 ft | 109 kts | 264° |
| 2026-04-27 21:34 | 51.30666 | -0.45800 | 2107 ft | 107 kts | 265° |
| 2026-04-27 21:34 | 51.30534 | -0.46937 | 2187 ft | 101 kts | 266° |
| 2026-04-27 21:34 | 51.30409 | -0.48103 | 2117 ft | 110 kts | 268° |
| 2026-04-27 21:35 | 51.30316 | -0.49292 | 2097 ft | 108 kts | 272° |
| 2026-04-27 21:35 | 51.30291 | -0.50497 | 2086 ft | 106 kts | 274° |
| 2026-04-27 21:35 | 51.30247 | -0.51672 | 2105 ft | 106 kts | 274° |
| 2026-04-27 21:35 | 51.30202 | -0.52855 | 2107 ft | 106 kts | 271° |
| 2026-04-27 21:36 | 51.30113 | -0.54041 | 2074 ft | 109 kts | 270° |
| 2026-04-27 21:36 | 51.30036 | -0.55215 | 2088 ft | 106 kts | 270° |
| 2026-04-27 21:36 | 51.29647 | -0.56191 | 2106 ft | 106 kts | 206° |
| 2026-04-27 21:36 | 51.28915 | -0.56376 | 2033 ft | 109 kts | 176° |
| 2026-04-27 21:37 | 51.28181 | -0.56453 | 2099 ft | 106 kts | 181° |
| 2026-04-27 21:37 | 51.27438 | -0.56578 | 2111 ft | 108 kts | 180° |
| 2026-04-27 21:37 | 51.26675 | -0.56660 | 2100 ft | 109 kts | 175° |
| 2026-04-27 21:37 | 51.25941 | -0.56601 | 2139 ft | 106 kts | 169° |
| 2026-04-27 21:38 | 51.25225 | -0.56445 | 2147 ft | 103 kts | 166° |
| 2026-04-27 21:38 | 51.24494 | -0.56531 | 2108 ft | 110 kts | 191° |
| 2026-04-27 21:38 | 51.23752 | -0.56873 | 2061 ft | 112 kts | 193° |
| 2026-04-27 21:38 | 51.23016 | -0.57265 | 2040 ft | 109 kts | 197° |
| 2026-04-27 21:39 | 51.22280 | -0.57665 | 2001 ft | 107 kts | 195° |
| 2026-04-27 21:39 | 51.21578 | -0.58045 | 2038 ft | 106 kts | 192° |
| 2026-04-27 21:39 | 51.20867 | -0.58284 | 2119 ft | 102 kts | 182° |
| 2026-04-27 21:39 | 51.20143 | -0.58471 | 2141 ft | 106 kts | 185° |
| 2026-04-27 21:40 | 51.19423 | -0.58706 | 2133 ft | 107 kts | 185° |
| 2026-04-27 21:40 | 51.18686 | -0.58849 | 2110 ft | 106 kts | 180° |
| 2026-04-27 21:40 | 51.17954 | -0.58982 | 2115 ft | 107 kts | 179° |
| 2026-04-27 21:40 | 51.17213 | -0.59105 | 2121 ft | 106 kts | 182° |
| 2026-04-27 21:41 | 51.16475 | -0.59315 | 2110 ft | 109 kts | 186° |
| 2026-04-27 21:41 | 51.15741 | -0.59464 | 2160 ft | 105 kts | 178° |
| 2026-04-27 21:41 | 51.14998 | -0.59563 | 2149 ft | 107 kts | 180° |
| 2026-04-27 21:41 | 51.14263 | -0.59724 | 2132 ft | 112 kts | 187° |
| 2026-04-27 21:42 | 51.13507 | -0.60019 | 2081 ft | 113 kts | 189° |
| 2026-04-27 21:42 | 51.12750 | -0.60326 | 2068 ft | 110 kts | 191° |
| 2026-04-27 21:42 | 51.12024 | -0.60580 | 2097 ft | 106 kts | 185° |
| 2026-04-27 21:42 | 51.11287 | -0.60793 | 2111 ft | 107 kts | 185° |
| 2026-04-27 21:43 | 51.10544 | -0.60999 | 2121 ft | 111 kts | 182° |
| 2026-04-27 21:43 | 51.09797 | -0.61069 | 2116 ft | 109 kts | 175° |
| 2026-04-27 21:43 | 51.09045 | -0.61191 | 2161 ft | 109 kts | 188° |
| 2026-04-27 21:43 | 51.08304 | -0.61471 | 2191 ft | 110 kts | 189° |
| 2026-04-27 21:44 | 51.07536 | -0.61804 | 2045 ft | 118 kts | 192° |
| 2026-04-27 21:44 | 51.06767 | -0.62149 | 2060 ft | 111 kts | 191° |
| 2026-04-27 21:44 | 51.06034 | -0.62451 | 2078 ft | 108 kts | 188° |
| 2026-04-27 21:44 | 51.05316 | -0.62707 | 2109 ft | 105 kts | 187° |
| 2026-04-27 21:45 | 51.04597 | -0.62952 | 2086 ft | 106 kts | 180° |
| 2026-04-27 21:45 | 51.03942 | -0.62665 | 2086 ft | 95 kts | 130° |
| 2026-04-27 21:45 | 51.03461 | -0.61954 | 2109 ft | 94 kts | 128° |
| 2026-04-27 21:45 | 51.02970 | -0.61266 | 2102 ft | 96 kts | 130° |
| 2026-04-27 21:46 | 51.02425 | -0.60584 | 2057 ft | 102 kts | 136° |
| 2026-04-27 21:46 | 51.01835 | -0.59985 | 2092 ft | 100 kts | 139° |
| 2026-04-27 21:46 | 51.01298 | -0.59327 | 2065 ft | 97 kts | 129° |
| 2026-04-27 21:46 | 51.00790 | -0.58613 | 2041 ft | 99 kts | 130° |
| 2026-04-27 21:47 | 51.00265 | -0.57898 | 2032 ft | 101 kts | 132° |
| 2026-04-27 21:47 | 50.99638 | -0.57400 | 2068 ft | 102 kts | 149° |
| 2026-04-27 21:47 | 50.99015 | -0.56904 | 2095 ft | 100 kts | 144° |
| 2026-04-27 21:47 | 50.98402 | -0.56402 | 2111 ft | 100 kts | 144° |
| 2026-04-27 21:48 | 50.97777 | -0.55875 | 2089 ft | 102 kts | 140° |
| 2026-04-27 21:48 | 50.97182 | -0.55250 | 2070 ft | 103 kts | 136° |
| 2026-04-27 21:48 | 50.96591 | -0.54631 | 2063 ft | 103 kts | 140° |
| 2026-04-27 21:48 | 50.95971 | -0.54077 | 2075 ft | 100 kts | 140° |
| 2026-04-27 21:49 | 50.95396 | -0.53447 | 2071 ft | 99 kts | 136° |
| 2026-04-27 21:49 | 50.94828 | -0.52831 | 2071 ft | 100 kts | 137° |
| 2026-04-27 21:49 | 50.94226 | -0.52288 | 2120 ft | 101 kts | 147° |
| 2026-04-27 21:49 | 50.93587 | -0.51820 | 2157 ft | 102 kts | 147° |
| 2026-04-27 21:50 | 50.92918 | -0.51317 | 2087 ft | 106 kts | 147° |
| 2026-04-27 21:50 | 50.92294 | -0.50839 | 2208 ft | 90 kts | 137° |
| 2026-04-27 21:50 | 50.91919 | -0.50043 | 2144 ft | 95 kts | 109° |
| 2026-04-27 21:50 | 50.91560 | -0.49114 | 2042 ft | 104 kts | 118° |
| 2026-04-27 21:51 | 50.91321 | -0.48588 | 1972 ft | 104 kts | 119° |
| 2026-04-27 21:53 | 50.91315 | -0.48576 | 1974 ft | 104 kts | 119° |
| 2026-04-27 21:53 | 50.90900 | -0.47731 | 2084 ft | 92 kts | 119° |
| 2026-04-27 21:53 | 50.90516 | -0.46914 | 2144 ft | 90 kts | 117° |
| 2026-04-27 21:53 | 50.90117 | -0.46111 | 2159 ft | 95 kts | 118° |
| 2026-04-27 21:54 | 50.89700 | -0.45249 | 2109 ft | 101 kts | 121° |
| 2026-04-27 21:54 | 50.89255 | -0.44432 | 2095 ft | 98 kts | 123° |
| 2026-04-27 21:54 | 50.88771 | -0.43676 | 2056 ft | 91 kts | 126° |
| 2026-04-27 21:54 | 50.88316 | -0.42972 | 2027 ft | 93 kts | 125° |
| 2026-04-27 21:55 | 50.87863 | -0.42272 | 2032 ft | 90 kts | 127° |
| 2026-04-27 21:55 | 50.87397 | -0.41626 | 2072 ft | 91 kts | 131° |
| 2026-04-27 21:55 | 50.86898 | -0.40938 | 2111 ft | 95 kts | 130° |
| 2026-04-27 21:55 | 50.86332 | -0.40308 | 2066 ft | 102 kts | 140° |
| 2026-04-27 21:56 | 50.85822 | -0.39594 | 2111 ft | 95 kts | 124° |
| 2026-04-27 21:56 | 50.84928 | -0.37950 | 2164 ft | 98 kts | 123° |
| 2026-04-27 21:56 | 50.84474 | -0.37170 | 2295 ft | 94 kts | 127° |
| 2026-04-27 21:57 | 50.84030 | -0.36387 | 2336 ft | 99 kts | 123° |
| 2026-04-27 21:57 | 50.83571 | -0.35521 | 2192 ft | 103 kts | 126° |
| 2026-04-27 21:57 | 50.83117 | -0.34673 | 2084 ft | 93 kts | 109° |
| 2026-04-27 21:57 | 50.82889 | -0.33722 | 2039 ft | 96 kts | 105° |
| 2026-04-27 21:58 | 50.82717 | -0.33082 | 2092 ft | 91 kts | 105° |
| 2026-04-27 21:58 | 50.82389 | -0.31853 | 2144 ft | 94 kts | 107° |
| 2026-04-27 21:58 | 50.82113 | -0.30880 | 2169 ft | 99 kts | 109° |
| 2026-04-27 21:58 | 50.81801 | -0.29971 | 2004 ft | 94 kts | 113° |
| 2026-04-27 21:59 | 50.81570 | -0.29370 | 1831 ft | 93 kts | 109° |
| 2026-04-27 21:59 | 50.81681 | -0.28538 | 1671 ft | 77 kts | 36° |
| 2026-04-27 21:59 | 50.82207 | -0.28297 | 1463 ft | 81 kts | 14° |
| 2026-04-27 21:59 | 50.82736 | -0.28121 | 1345 ft | 76 kts | 15° |
| 2026-04-27 22:00 | 50.83254 | -0.27929 | 1278 ft | 76 kts | 18° |
| 2026-04-27 22:00 | 50.83751 | -0.27644 | 1172 ft | 74 kts | 20° |
| 2026-04-27 22:00 | 50.84132 | -0.28109 | 1102 ft | 89 kts | 285° |
| 2026-04-27 22:00 | 50.84212 | -0.29119 | 1076 ft | 95 kts | 282° |
| 2026-04-27 22:01 | 50.84273 | -0.30173 | 1101 ft | 96 kts | 283° |
| 2026-04-27 22:01 | 50.84347 | -0.31211 | 1149 ft | 97 kts | 271° |
| 2026-04-27 22:01 | 50.83857 | -0.31911 | 1198 ft | 102 kts | 202° |
| 2026-04-27 22:01 | 50.83198 | -0.32340 | 1166 ft | 103 kts | 202° |
| 2026-04-27 22:02 | 50.82554 | -0.32784 | 1101 ft | 95 kts | 203° |
| 2026-04-27 22:02 | 50.81972 | -0.33188 | 1127 ft | 90 kts | 202° |
| 2026-04-27 22:02 | 50.81390 | -0.33550 | 1134 ft | 90 kts | 202° |
| 2026-04-27 22:02 | 50.80851 | -0.33466 | 1112 ft | 77 kts | 112° |
| 2026-04-27 22:03 | 50.80662 | -0.32702 | 999 ft | 68 kts | 101° |
| 2026-04-27 22:03 | 50.80517 | -0.32031 | 887 ft | 63 kts | 101° |
| 2026-04-27 22:03 | 50.80706 | -0.31533 | 751 ft | 61 kts | 20° |
| 2026-04-27 22:03 | 50.81118 | -0.31332 | 534 ft | 60 kts | 18° |
| 2026-04-27 22:04 | 50.81531 | -0.31089 | 351 ft | 65 kts | 22° |
| 2026-04-27 22:04 | 50.81954 | -0.30791 | 270 ft | 68 kts | 24° |
| 2026-04-27 22:04 | 50.82386 | -0.30476 | 225 ft | 69 kts | 22° |
| 2026-04-27 22:04 | 50.82840 | -0.30185 | 138 ft | 68 kts | 21° |
| 2026-04-27 22:05 | 50.83243 | -0.29923 | 26 ft | 58 kts | 18° |
| 2026-04-27 22:05 | 50.83563 | -0.29726 | 12 ft | 41 kts | 22° |
| 2026-04-27 22:05 | 50.83796 | -0.29582 | 12 ft | 32 kts | 21° |
| 2026-04-27 22:05 | 50.83955 | -0.29481 | 12 ft | 20 kts | 24° |
| 2026-04-27 22:06 | 50.83987 | -0.29407 | 13 ft | 9 kts | 109° |
| 2026-04-27 22:06 | 50.83951 | -0.29329 | 12 ft | 2 kts | 179° |
| 2026-04-27 22:07 | 50.83922 | -0.29329 | 11 ft | 9 kts | 184° |
| 2026-04-27 22:07 | 50.83851 | -0.29326 | 12 ft | 13 kts | 164° |
| 2026-04-27 22:07 | 50.83782 | -0.29218 | 12 ft | 14 kts | 138° |
| 2026-04-27 22:07 | 50.83745 | -0.29124 | 12 ft | 9 kts | 127° |
| 2026-04-27 22:08 | 50.83707 | -0.29040 | 12 ft | 10 kts | 127° |
| 2026-04-27 22:08 | 50.83667 | -0.28949 | 12 ft | 11 kts | 124° |
| 2026-04-27 22:08 | 50.83622 | -0.28850 | 12 ft | 11 kts | 139° |
| 2026-04-27 22:08 | 50.83548 | -0.28809 | 12 ft | 12 kts | 194° |
| 2026-04-27 22:09 | 50.83505 | -0.28869 | 11 ft | 0 kts | 262° |
| 2026-04-27 22:09 | 50.83491 | -0.28867 | 12 ft | 3 kts | 149° |
| 2026-04-27 22:09 | 50.83479 | -0.28873 | 13 ft | 1 kts | 239° |
| 2026-04-27 22:09 | 50.83475 | -0.28884 | 12 ft | 0 kts | 247° |